createdAt,value
2023-07-19T00:00:01.797Z,49.90
2023-07-19T00:02:28.488Z,49.77
2023-07-19T00:04:55.193Z,49.95
2023-07-19T00:07:21.867Z,49.57
2023-07-19T00:09:48.650Z,49.57
2023-07-19T00:12:15.327Z,49.81
2023-07-19T00:14:42.080Z,50.21
2023-07-19T00:17:08.778Z,50.40
2023-07-19T00:19:35.415Z,50.62
2023-07-19T00:22:02.209Z,50.90
2023-07-19T00:24:29.155Z,50.89
2023-07-19T00:26:57.450Z,50.37
2023-07-19T00:29:24.179Z,50.24
2023-07-19T00:31:50.836Z,50.49
2023-07-19T00:34:17.553Z,50.34
2023-07-19T00:36:44.234Z,50.84
2023-07-19T00:39:11.444Z,51.04
2023-07-19T00:41:38.132Z,50.83
2023-07-19T00:44:05.148Z,50.81
2023-07-19T00:46:32.149Z,50.94
2023-07-19T00:48:58.938Z,50.75
2023-07-19T00:51:26.499Z,50.93
2023-07-19T00:53:55.296Z,51.13
2023-07-19T00:56:22.358Z,51.36
2023-07-19T00:58:51.691Z,51.85
2023-07-19T01:01:22.567Z,51.79
2023-07-19T01:03:49.441Z,51.69
2023-07-19T01:06:16.923Z,51.83
2023-07-19T01:08:43.607Z,51.83
2023-07-19T01:11:10.323Z,51.86
2023-07-19T01:13:36.993Z,51.97
2023-07-19T01:16:03.963Z,51.90
2023-07-19T01:18:30.729Z,51.78
2023-07-19T01:21:00.115Z,51.97
2023-07-19T01:23:34.113Z,51.82
2023-07-19T01:26:00.766Z,51.84
2023-07-19T01:28:27.374Z,52.04
2023-07-19T01:30:53.995Z,52.07
2023-07-19T01:33:32.675Z,51.98
2023-07-19T01:36:01.306Z,51.95
2023-07-19T01:38:28.356Z,51.75
2023-07-19T01:40:55.321Z,51.81
2023-07-19T01:43:22.014Z,51.07
2023-07-19T01:45:48.843Z,51.57
2023-07-19T01:48:15.616Z,51.74
2023-07-19T01:50:48.480Z,52.36
2023-07-19T01:53:16.035Z,52.34
2023-07-19T01:55:43.139Z,52.05
2023-07-19T01:58:10.749Z,52.10
2023-07-19T02:00:38.171Z,52.07
2023-07-19T02:03:05.346Z,52.33
2023-07-19T02:05:32.784Z,52.45
2023-07-19T02:07:59.495Z,52.72
2023-07-19T02:10:26.840Z,52.87
2023-07-19T02:12:53.547Z,52.67
2023-07-19T02:15:20.311Z,52.70
2023-07-19T02:17:47.251Z,52.64
2023-07-19T02:20:15.048Z,52.43
2023-07-19T02:22:41.713Z,52.09
2023-07-19T02:25:08.967Z,53.05
2023-07-19T02:27:35.588Z,53.09
2023-07-19T02:30:03.541Z,53.00
2023-07-19T02:32:30.244Z,53.00
2023-07-19T02:34:56.931Z,53.32
2023-07-19T02:37:23.589Z,53.19
2023-07-19T02:39:50.593Z,52.83
2023-07-19T02:42:17.815Z,52.81
2023-07-19T02:44:44.501Z,53.21
2023-07-19T02:47:13.741Z,53.11
2023-07-19T02:49:43.477Z,53.09
2023-07-19T02:52:10.270Z,53.02
2023-07-19T02:54:36.921Z,52.96
2023-07-19T02:57:03.879Z,52.90
2023-07-19T02:59:30.537Z,53.26
2023-07-19T03:01:57.190Z,53.22
2023-07-19T03:04:23.844Z,53.21
2023-07-19T03:06:50.761Z,52.79
2023-07-19T03:09:17.559Z,52.68
2023-07-19T03:11:44.278Z,52.95
2023-07-19T03:14:10.973Z,52.79
2023-07-19T03:16:38.105Z,53.52
2023-07-19T03:19:05.456Z,53.47
2023-07-19T03:21:32.108Z,53.49
2023-07-19T03:23:58.757Z,53.33
2023-07-19T03:26:25.518Z,52.91
2023-07-19T03:28:52.232Z,53.01
2023-07-19T03:31:19.235Z,53.42
2023-07-19T03:33:46.241Z,53.59
2023-07-19T03:36:12.941Z,53.52
2023-07-19T03:38:39.580Z,53.51
2023-07-19T03:41:10.851Z,53.31
2023-07-19T03:43:38.009Z,53.65
2023-07-19T03:46:06.843Z,53.40
2023-07-19T03:48:33.601Z,53.75
2023-07-19T03:51:02.213Z,53.94
2023-07-19T03:53:29.715Z,54.55
2023-07-19T03:55:59.111Z,54.66
2023-07-19T03:58:27.622Z,54.64
2023-07-19T04:00:59.621Z,54.55
2023-07-19T04:03:28.228Z,54.25
2023-07-19T04:05:55.447Z,54.07
2023-07-19T04:08:22.132Z,54.32
2023-07-19T04:10:48.829Z,54.16
2023-07-19T04:13:16.181Z,54.34
2023-07-19T04:15:43.058Z,54.21
2023-07-19T04:18:09.891Z,54.41
2023-07-19T04:20:37.822Z,54.58
2023-07-19T04:23:05.214Z,54.71
2023-07-19T04:25:32.510Z,54.90
2023-07-19T04:27:59.308Z,54.94
2023-07-19T04:30:26.336Z,54.87
2023-07-19T04:32:56.173Z,54.73
2023-07-19T04:35:23.758Z,55.07
2023-07-19T04:37:51.467Z,54.88
2023-07-19T04:40:18.611Z,55.16
2023-07-19T04:42:45.350Z,54.85
2023-07-19T04:45:12.705Z,54.89
2023-07-19T04:47:39.480Z,54.96
2023-07-19T04:50:09.909Z,55.00
2023-07-19T04:52:37.623Z,55.48
2023-07-19T04:55:06.422Z,55.77
2023-07-19T04:57:33.441Z,55.68
2023-07-19T05:00:00.179Z,55.41
2023-07-19T05:02:26.887Z,55.05
2023-07-19T05:04:54.374Z,55.41
2023-07-19T05:07:21.329Z,55.32
2023-07-19T05:09:48.009Z,55.48
2023-07-19T05:12:16.113Z,55.26
2023-07-19T05:14:42.990Z,55.23
2023-07-19T05:17:09.782Z,55.39
2023-07-19T05:19:36.715Z,55.88
2023-07-19T05:22:03.488Z,55.65
2023-07-19T05:24:30.130Z,55.32
2023-07-19T05:26:56.850Z,55.75
2023-07-19T05:29:23.786Z,55.61
2023-07-19T05:31:50.512Z,55.15
2023-07-19T05:34:17.251Z,55.34
2023-07-19T05:36:43.964Z,54.94
2023-07-19T05:39:10.673Z,54.77
2023-07-19T05:41:37.467Z,54.64
2023-07-19T05:44:11.634Z,54.70
2023-07-19T05:46:39.455Z,54.58
2023-07-19T05:49:06.384Z,54.55
2023-07-19T05:51:33.134Z,54.42
2023-07-19T05:53:59.980Z,54.21
2023-07-19T05:56:26.654Z,54.09
2023-07-19T05:58:55.085Z,53.91
2023-07-19T06:01:24.952Z,53.79
2023-07-19T06:03:52.971Z,53.68
2023-07-19T06:06:19.678Z,53.66
2023-07-19T06:08:46.337Z,53.00
2023-07-19T06:11:13.086Z,52.76
2023-07-19T06:13:39.784Z,52.46
2023-07-19T06:16:06.998Z,52.13
2023-07-19T06:18:33.835Z,52.15
2023-07-19T06:21:00.558Z,51.91
2023-07-19T06:23:27.502Z,51.65
2023-07-19T06:25:54.584Z,51.53
2023-07-19T06:28:38.967Z,51.26
2023-07-19T06:31:14.396Z,51.56
2023-07-19T06:33:41.191Z,51.82
2023-07-19T06:36:07.934Z,51.59
2023-07-19T06:38:37.999Z,51.59
2023-07-19T06:41:05.760Z,51.02
2023-07-19T06:43:32.792Z,50.52
2023-07-19T06:45:59.497Z,50.49
2023-07-19T06:48:26.258Z,50.59
2023-07-19T06:50:53.000Z,50.41
2023-07-19T06:53:19.621Z,50.11
2023-07-19T06:55:46.898Z,50.31
2023-07-19T06:58:13.720Z,50.50
2023-07-19T07:00:40.540Z,50.48
2023-07-19T07:03:07.406Z,50.23
2023-07-19T07:05:34.961Z,49.94
2023-07-19T07:08:01.661Z,49.95
2023-07-19T07:10:28.351Z,49.28
2023-07-19T07:12:55.051Z,48.49
2023-07-19T07:15:21.863Z,47.63
2023-07-19T07:17:49.915Z,47.92
2023-07-19T07:20:16.936Z,47.65
2023-07-19T07:22:44.317Z,47.39
2023-07-19T07:25:11.497Z,47.21
2023-07-19T07:27:38.257Z,46.77
2023-07-19T07:30:08.899Z,46.39
2023-07-19T07:32:35.997Z,46.27
2023-07-19T07:35:04.108Z,46.12
2023-07-19T07:37:30.825Z,45.94
2023-07-19T07:39:57.544Z,45.81
2023-07-19T07:42:25.468Z,45.94
2023-07-19T07:44:52.128Z,46.05
2023-07-19T07:47:18.998Z,46.34
2023-07-19T07:49:47.750Z,45.92
2023-07-19T07:52:16.533Z,45.86
2023-07-19T07:54:43.365Z,45.96
2023-07-19T07:57:14.868Z,45.61
2023-07-19T07:59:42.749Z,45.43
2023-07-19T08:02:09.387Z,45.09
2023-07-19T08:04:36.071Z,45.08
2023-07-19T08:07:02.783Z,44.86
2023-07-19T08:09:29.477Z,44.64
2023-07-19T08:11:56.398Z,44.51
2023-07-19T08:14:23.291Z,44.30
2023-07-19T08:16:54.464Z,43.98
2023-07-19T08:19:21.248Z,44.07
2023-07-19T08:21:48.020Z,43.94
2023-07-19T08:24:14.719Z,44.09
2023-07-19T08:26:41.672Z,44.30
2023-07-19T08:29:08.410Z,44.43
2023-07-19T08:31:35.668Z,44.28
2023-07-19T08:34:02.556Z,44.17
2023-07-19T08:36:29.259Z,44.09
2023-07-19T08:38:56.728Z,43.82
2023-07-19T08:41:25.619Z,43.86
2023-07-19T08:43:56.167Z,43.83
2023-07-19T08:46:24.055Z,43.82
2023-07-19T08:48:51.516Z,43.62
2023-07-19T08:51:19.557Z,43.73
2023-07-19T08:53:46.668Z,43.82
2023-07-19T08:56:14.517Z,43.84
2023-07-19T08:58:44.403Z,43.94
2023-07-19T09:01:13.101Z,43.84
2023-07-19T09:03:40.001Z,43.52
2023-07-19T09:06:07.188Z,43.07
2023-07-19T09:08:39.349Z,42.81
2023-07-19T09:11:06.314Z,42.59
2023-07-19T09:13:38.082Z,42.38
2023-07-19T09:16:06.835Z,42.21
2023-07-19T09:18:38.684Z,41.85
2023-07-19T09:21:05.901Z,41.98
2023-07-19T09:23:39.728Z,41.96
2023-07-19T09:26:08.223Z,41.95
2023-07-19T09:28:36.093Z,41.90
2023-07-19T09:33:36.079Z,42.12
2023-07-19T09:36:02.903Z,42.13
2023-07-19T09:38:29.714Z,41.80
2023-07-19T09:40:56.890Z,42.01
2023-07-19T09:43:23.608Z,42.00
2023-07-19T09:45:51.991Z,41.51
2023-07-19T09:48:22.472Z,41.53
2023-07-19T09:50:50.954Z,41.20
2023-07-19T09:53:23.820Z,41.38
2023-07-19T09:55:54.056Z,41.09
2023-07-19T09:58:23.433Z,40.91
2023-07-19T10:00:51.344Z,41.17
2023-07-19T10:03:22.613Z,41.27
2023-07-19T10:05:58.036Z,40.73
2023-07-19T10:08:24.837Z,40.84
2023-07-19T10:10:58.855Z,40.89
2023-07-19T10:16:36.843Z,40.77
2023-07-19T10:19:13.885Z,40.70
2023-07-19T10:22:05.236Z,40.50
2023-07-19T10:24:34.671Z,40.03
2023-07-19T10:27:09.620Z,40.51
2023-07-19T10:29:48.805Z,40.31
2023-07-19T10:32:15.485Z,40.49
2023-07-19T10:34:47.582Z,40.69
2023-07-19T10:37:14.624Z,40.39
2023-07-19T10:39:41.881Z,40.34
2023-07-19T10:42:08.803Z,40.20
2023-07-19T10:44:35.447Z,40.25
2023-07-19T10:47:02.110Z,40.06
2023-07-19T10:49:28.957Z,39.81
2023-07-19T10:51:58.641Z,40.18
2023-07-19T10:54:27.114Z,39.86
2023-07-19T10:56:55.516Z,40.10
2023-07-19T10:59:22.267Z,40.26
2023-07-19T11:01:52.369Z,40.38
2023-07-19T11:04:19.925Z,40.35
2023-07-19T11:07:03.951Z,41.25
2023-07-19T11:09:31.571Z,41.66
2023-07-19T11:11:58.788Z,42.18
2023-07-19T11:14:34.766Z,43.76
2023-07-19T11:17:02.628Z,44.35
2023-07-19T11:19:41.753Z,44.78
2023-07-19T11:22:10.242Z,44.89
2023-07-19T11:24:42.469Z,44.37
2023-07-19T11:27:09.550Z,45.82
2023-07-19T11:29:36.772Z,46.83
2023-07-19T11:32:24.523Z,46.42
2023-07-19T11:34:59.546Z,46.07
2023-07-19T11:37:39.879Z,46.21
2023-07-19T11:40:07.421Z,47.02
2023-07-19T11:42:46.863Z,46.65
2023-07-19T11:45:20.491Z,46.22
2023-07-19T11:47:50.527Z,45.79
2023-07-19T11:50:17.442Z,45.96
2023-07-19T11:52:55.772Z,46.04
2023-07-19T11:55:24.126Z,46.59
2023-07-19T11:57:53.041Z,46.69
2023-07-19T12:00:22.996Z,46.99
2023-07-19T12:02:52.117Z,46.68
2023-07-19T12:05:21.821Z,46.33
2023-07-19T12:07:53.004Z,46.10
2023-07-19T12:10:24.699Z,45.83
2023-07-19T12:12:51.468Z,45.63
2023-07-19T12:15:19.636Z,45.58
2023-07-19T12:17:48.194Z,45.10
2023-07-19T12:20:14.966Z,44.00
2023-07-19T12:22:44.746Z,43.37
2023-07-19T12:25:11.704Z,42.35
2023-07-19T12:27:39.360Z,41.22
2023-07-19T12:30:07.174Z,41.04
2023-07-19T12:32:34.739Z,39.96
2023-07-19T12:35:02.954Z,39.54
2023-07-19T12:37:29.600Z,39.32
2023-07-19T12:39:56.305Z,39.42
2023-07-19T12:42:23.174Z,39.25
2023-07-19T12:44:49.825Z,38.78
2023-07-19T12:47:16.916Z,38.42
2023-07-19T12:49:43.825Z,38.05
2023-07-19T12:52:12.413Z,37.75
2023-07-19T12:54:39.554Z,37.62
2023-07-19T12:57:07.164Z,36.81
2023-07-19T12:59:33.961Z,36.08
2023-07-19T13:02:02.318Z,35.95
2023-07-19T13:04:29.103Z,35.86
2023-07-19T13:06:56.121Z,35.78
2023-07-19T13:09:22.962Z,36.08
2023-07-19T13:11:49.826Z,35.95
2023-07-19T13:14:16.849Z,36.65
2023-07-19T13:16:43.549Z,36.81
2023-07-19T13:19:10.892Z,36.94
2023-07-19T13:21:37.812Z,36.58
2023-07-19T13:24:04.735Z,36.95
2023-07-19T13:26:31.901Z,37.10
2023-07-19T13:29:00.610Z,36.98
2023-07-19T13:31:29.005Z,36.78
2023-07-19T13:33:59.217Z,37.42
2023-07-19T13:36:29.848Z,38.09
2023-07-19T13:38:57.793Z,38.08
2023-07-19T13:41:24.889Z,38.43
2023-07-19T13:43:54.737Z,38.58
2023-07-19T13:46:25.876Z,38.21
2023-07-19T13:49:01.122Z,38.21
2023-07-19T13:51:27.802Z,38.44
2023-07-19T13:54:09.221Z,38.49
2023-07-19T13:56:35.848Z,38.38
2023-07-19T13:59:02.549Z,39.11
2023-07-19T14:01:29.322Z,38.70
2023-07-19T14:03:56.538Z,38.83
2023-07-19T14:06:23.859Z,39.05
2023-07-19T14:08:51.033Z,39.06
2023-07-19T14:11:17.712Z,39.10
2023-07-19T14:13:55.229Z,39.76
2023-07-19T14:16:23.209Z,39.55
2023-07-19T14:18:50.453Z,39.95
2023-07-19T14:21:17.251Z,39.47
2023-07-19T14:23:44.247Z,39.06
2023-07-19T14:26:10.928Z,38.63
2023-07-19T14:28:38.679Z,38.91
2023-07-19T14:31:05.456Z,38.66
2023-07-19T14:33:32.314Z,37.68
2023-07-19T14:36:00.667Z,37.63
2023-07-19T14:38:29.686Z,37.01
2023-07-19T14:40:58.044Z,36.34
2023-07-19T14:43:25.717Z,36.39
2023-07-19T14:45:55.815Z,36.65
2023-07-19T14:48:24.772Z,36.18
2023-07-19T14:50:56.645Z,36.28
2023-07-19T14:53:24.036Z,36.94
2023-07-19T14:55:52.710Z,36.77
2023-07-19T14:58:20.361Z,37.15
2023-07-19T15:00:50.707Z,36.54
2023-07-19T15:05:49.956Z,35.40
2023-07-19T15:08:17.388Z,35.40
2023-07-19T15:10:44.228Z,35.57
2023-07-19T15:13:11.900Z,35.33
2023-07-19T15:15:44.539Z,34.91
2023-07-19T15:18:11.971Z,34.63
2023-07-19T15:20:40.201Z,34.29
2023-07-19T15:23:07.201Z,34.41
2023-07-19T15:25:35.156Z,34.14
2023-07-19T15:28:11.012Z,33.77
2023-07-19T15:30:45.149Z,33.52
2023-07-19T15:33:11.943Z,33.74
2023-07-19T15:35:38.670Z,33.59
2023-07-19T15:38:05.391Z,32.14
2023-07-19T15:40:32.104Z,31.76
2023-07-19T15:42:59.214Z,30.83
2023-07-19T15:45:25.967Z,30.69
2023-07-19T15:47:52.832Z,30.92
2023-07-19T15:50:21.534Z,31.58
2023-07-19T15:52:48.273Z,31.45
2023-07-19T15:55:14.943Z,32.07
2023-07-19T15:57:41.607Z,32.68
2023-07-19T16:00:10.239Z,32.63
2023-07-19T16:02:37.147Z,32.18
2023-07-19T16:05:04.213Z,31.78
2023-07-19T16:07:30.853Z,31.20
2023-07-19T16:09:57.687Z,30.52
2023-07-19T16:12:24.489Z,29.44
2023-07-19T16:14:51.213Z,29.04
2023-07-19T16:17:17.925Z,28.97
2023-07-19T16:19:44.539Z,29.32
2023-07-19T16:22:11.607Z,29.50
2023-07-19T16:24:38.298Z,29.29
2023-07-19T16:27:05.315Z,30.11
2023-07-19T16:29:33.325Z,29.98
2023-07-19T16:32:00.320Z,30.77
2023-07-19T16:34:26.928Z,31.21
2023-07-19T16:36:53.612Z,31.44
2023-07-19T16:39:20.840Z,31.17
2023-07-19T16:41:47.628Z,30.89
2023-07-19T16:44:14.326Z,31.52
2023-07-19T16:46:42.984Z,32.02
2023-07-19T16:49:09.758Z,32.30
2023-07-19T16:51:36.658Z,32.46
2023-07-19T16:54:03.489Z,33.09
2023-07-19T16:56:30.446Z,33.13
2023-07-19T16:58:57.165Z,33.67
2023-07-19T17:01:27.782Z,34.23
2023-07-19T17:03:55.033Z,34.05
2023-07-19T17:06:21.769Z,34.28
2023-07-19T17:08:48.530Z,34.38
2023-07-19T17:11:16.079Z,34.86
2023-07-19T17:13:43.001Z,34.83
2023-07-19T17:16:09.736Z,34.91
2023-07-19T17:18:36.927Z,34.79
2023-07-19T17:21:04.504Z,35.33
2023-07-19T17:23:31.179Z,35.60
2023-07-19T17:25:57.973Z,35.84
2023-07-19T17:28:24.584Z,36.15
2023-07-19T17:30:51.376Z,36.25
2023-07-19T17:33:18.403Z,35.93
2023-07-19T17:35:45.769Z,36.21
2023-07-19T17:38:12.609Z,36.08
2023-07-19T17:40:39.411Z,36.48
2023-07-19T17:43:06.168Z,36.71
2023-07-19T17:45:32.857Z,36.93
2023-07-19T17:47:59.652Z,36.89
2023-07-19T17:50:27.046Z,36.88
2023-07-19T17:52:53.860Z,36.52
2023-07-19T17:55:20.817Z,36.72
2023-07-19T17:57:47.569Z,36.87
2023-07-19T18:00:14.773Z,37.71
2023-07-19T18:02:43.051Z,37.28
2023-07-19T18:05:09.727Z,37.37
2023-07-19T18:07:36.359Z,37.12
2023-07-19T18:10:03.402Z,37.37
2023-07-19T18:12:30.176Z,37.31
2023-07-19T18:14:56.830Z,37.36
2023-07-19T18:17:23.724Z,37.98
2023-07-19T18:19:50.341Z,38.13
2023-07-19T18:22:17.133Z,38.42
2023-07-19T18:24:44.249Z,38.76
2023-07-19T18:27:10.895Z,38.32
2023-07-19T18:29:37.656Z,38.65
2023-07-19T18:32:06.009Z,39.06
2023-07-19T18:34:36.887Z,39.12
2023-07-19T18:37:05.103Z,39.87
2023-07-19T18:39:32.101Z,40.76
2023-07-19T18:42:01.685Z,41.34
2023-07-19T18:44:28.422Z,41.27
2023-07-19T18:46:55.204Z,41.02
2023-07-19T18:49:21.890Z,41.02
2023-07-19T18:51:48.536Z,40.63
2023-07-19T18:54:15.183Z,41.16
2023-07-19T18:56:41.896Z,41.32
2023-07-19T18:59:08.510Z,41.10
2023-07-19T19:01:35.319Z,41.13
2023-07-19T19:04:02.075Z,41.32
2023-07-19T19:06:29.930Z,41.41
2023-07-19T19:09:06.602Z,41.58
2023-07-19T19:11:34.338Z,41.45
2023-07-19T19:14:00.971Z,41.91
2023-07-19T19:16:27.946Z,42.33
2023-07-19T19:18:54.836Z,42.28
2023-07-19T19:21:23.982Z,42.47
2023-07-19T19:23:51.021Z,42.37
2023-07-19T19:26:17.808Z,42.20
2023-07-19T19:28:45.849Z,42.20
2023-07-19T19:31:13.944Z,42.29
2023-07-19T19:33:40.881Z,42.19
2023-07-19T19:36:08.266Z,42.30
2023-07-19T19:38:35.032Z,42.37
2023-07-19T19:41:01.908Z,42.30
2023-07-19T19:43:28.688Z,42.43
2023-07-19T19:45:55.329Z,42.33
2023-07-19T19:48:22.007Z,42.44
2023-07-19T19:50:49.577Z,42.61
2023-07-19T19:53:16.725Z,42.76
2023-07-19T19:58:13.080Z,42.99
2023-07-19T20:00:41.439Z,43.03
2023-07-19T20:08:09.284Z,43.71
2023-07-19T20:10:35.923Z,44.01
2023-07-19T20:13:03.529Z,43.91
2023-07-19T20:15:49.265Z,44.07
2023-07-19T20:20:47.558Z,44.31
2023-07-19T20:23:14.464Z,44.43
2023-07-19T20:25:48.672Z,44.47
2023-07-19T20:28:28.999Z,44.65
2023-07-19T20:31:05.800Z,44.42
2023-07-19T20:33:34.393Z,45.13
2023-07-19T20:43:30.466Z,45.55
2023-07-19T20:45:57.830Z,45.58
2023-07-19T20:48:33.829Z,45.87
2023-07-19T20:51:01.788Z,45.75
2023-07-19T20:53:28.483Z,46.25
2023-07-19T20:55:55.423Z,46.41
2023-07-19T20:58:22.130Z,46.58
2023-07-19T21:00:48.852Z,46.45
2023-07-19T21:03:15.670Z,46.72
2023-07-19T21:05:42.502Z,46.50
2023-07-19T21:08:09.099Z,46.77
2023-07-19T21:10:36.319Z,46.59
2023-07-19T21:13:03.292Z,46.74
2023-07-19T21:15:30.012Z,46.77
2023-07-19T21:17:56.795Z,46.86
2023-07-19T21:20:24.611Z,46.71
2023-07-19T21:22:52.375Z,47.07
2023-07-19T21:25:19.405Z,47.25
2023-07-19T21:27:46.449Z,47.33
2023-07-19T21:30:14.679Z,46.99
2023-07-19T21:32:42.687Z,47.09
2023-07-19T21:35:10.458Z,47.42
2023-07-19T21:37:38.786Z,47.50
2023-07-19T21:40:06.571Z,47.46
2023-07-19T21:42:34.617Z,47.66
2023-07-19T21:45:01.301Z,48.21
2023-07-19T21:47:27.984Z,48.09
2023-07-19T21:49:54.700Z,47.83
2023-07-19T21:52:21.348Z,48.07
2023-07-19T21:54:48.020Z,48.08
2023-07-19T21:57:14.627Z,48.14
2023-07-19T21:59:41.376Z,48.44
2023-07-19T22:02:08.984Z,48.50
2023-07-19T22:04:38.749Z,48.50
2023-07-19T22:07:06.110Z,48.66
2023-07-19T22:09:32.920Z,48.85
2023-07-19T22:11:59.655Z,48.54
2023-07-19T22:14:26.303Z,48.98
2023-07-19T22:16:56.095Z,49.19
2023-07-19T22:19:22.944Z,49.08
2023-07-19T22:21:50.099Z,49.20
2023-07-19T22:24:17.002Z,49.40
2023-07-19T22:26:44.295Z,49.14
2023-07-19T22:29:11.045Z,49.24
2023-07-19T22:31:37.754Z,49.22
2023-07-19T22:34:04.423Z,49.29
2023-07-19T22:36:31.043Z,49.39
2023-07-19T22:38:57.675Z,49.39
2023-07-19T22:41:24.862Z,49.16
2023-07-19T22:43:51.531Z,49.42
2023-07-19T22:46:19.928Z,49.39
2023-07-19T22:48:50.484Z,49.77
2023-07-19T22:51:18.340Z,49.85
2023-07-19T22:53:46.529Z,49.93
2023-07-19T22:56:13.596Z,50.09
2023-07-19T22:58:40.292Z,49.88
2023-07-19T23:01:07.149Z,50.61
2023-07-19T23:03:36.075Z,50.44
2023-07-19T23:06:07.361Z,50.24
2023-07-19T23:08:34.276Z,50.70
2023-07-19T23:11:01.087Z,50.60
2023-07-19T23:13:27.831Z,50.62
2023-07-19T23:15:54.524Z,50.43
2023-07-19T23:18:23.170Z,50.62
2023-07-19T23:20:51.096Z,50.65
2023-07-19T23:23:18.004Z,50.52
2023-07-19T23:25:44.697Z,50.50
2023-07-19T23:28:11.436Z,50.67
2023-07-19T23:30:40.501Z,50.60
2023-07-19T23:33:07.399Z,50.93
2023-07-19T23:35:35.358Z,50.87
2023-07-19T23:38:02.410Z,51.00
2023-07-19T23:40:29.100Z,51.46
2023-07-19T23:42:56.002Z,51.43
2023-07-19T23:45:22.700Z,51.39
2023-07-19T23:47:49.914Z,51.51
2023-07-19T23:50:17.156Z,51.38
2023-07-19T23:52:43.998Z,51.60
2023-07-19T23:55:11.167Z,51.51
2023-07-19T23:57:37.899Z,51.79
